Time;durP1;ratioP1;P1;durP2;ratioP2;P2;SDS_P1;SDS_P2;PMS_P1;PMS_P2;Temp;Humidity;BMP_temperature;BMP_pressure;BME280_temperature;BME280_humidity;BME280_pressure;Samples;Min_cycle;Max_cycle;Signal;HPM_P1;HPM_P2
2023/07/01 00:02:14;;;;;;;19.52;12.98;;;;;;;16.11;91.05;97266.34;10334145;28;20041;-48
2023/07/01 00:07:13;;;;;;;17.70;12.75;;;;;;;16.07;90.74;97271.69;10340358;28;20028;-48
2023/07/01 00:12:12;;;;;;;18.95;14.02;;;;;;;16.03;90.87;97263.97;10376225;28;20418;-50
2023/07/01 00:17:12;;;;;;;18.77;15.65;;;;;;;15.94;90.97;97265.09;10373282;28;20032;-49
2023/07/01 00:22:11;;;;;;;21.88;15.48;;;;;;;15.90;91.42;97270.47;10372379;28;20514;-50
2023/07/01 00:27:10;;;;;;;17.75;15.13;;;;;;;15.82;91.78;97253.25;10372543;28;20519;-51
2023/07/01 00:32:09;;;;;;;;;;;;;;;15.77;91.62;97246.44;10372636;28;20493;-49
2023/07/01 00:37:08;;;;;;;20.17;15.50;;;;;;;15.68;91.64;97242.31;10373464;28;20395;-50
2023/07/01 00:42:07;;;;;;;;;;;;;;;15.57;92.42;97242.63;10372046;28;20484;-51
2023/07/01 00:47:06;;;;;;;18.37;15.00;;;;;;;15.58;91.85;97241.72;10372161;28;20308;-49
2023/07/01 00:52:07;;;;;;;19.50;16.10;;;;;;;15.42;93.39;97240.47;10371460;28;20164;-49
2023/07/01 00:57:06;;;;;;;17.50;14.95;;;;;;;15.43;93.02;97252.63;10369082;28;20071;-50
2023/07/01 01:02:20;;;;;;;18.58;15.55;;;;;;;15.08;93.23;97196.97;10330460;28;20088;-50
2023/07/01 01:07:27;;;;;;;20.50;16.00;;;;;;;15.36;93.22;97241.47;10368390;28;20065;-51
2023/07/01 01:12:28;;;;;;;20.15;16.25;;;;;;;15.32;93.26;97233.75;10361733;28;20045;-48
2023/07/01 01:17:30;;;;;;;19.08;16.08;;;;;;;15.29;93.30;97239.09;10339079;28;20127;-50
2023/07/01 01:22:44;;;;;;;18.60;16.35;;;;;;;15.24;93.71;97232.22;10362247;28;20076;-49
2023/07/01 01:27:43;;;;;;;20.58;16.15;;;;;;;15.23;93.71;97225.28;10359516;28;20124;-50
2023/07/01 01:32:42;;;;;;;22.25;17.38;;;;;;;15.21;94.20;97216.63;10339045;28;20296;-49
2023/07/01 01:37:58;;;;;;;23.60;16.80;;;;;;;15.04;93.92;97184.91;10362558;28;20153;-51
2023/07/01 01:43:22;;;;;;;19.17;14.88;;;;;;;15.10;94.67;97221.31;10358521;28;20073;-48
2023/07/01 01:48:21;;;;;;;18.50;15.27;;;;;;;15.11;94.01;97225.66;10353871;28;20532;-51
2023/07/01 01:53:24;;;;;;;22.50;14.65;;;;;;;15.02;94.40;97215.44;10342516;28;20650;-48
2023/07/01 01:58:23;;;;;;;18.58;14.77;;;;;;;14.75;94.28;97186.53;10368164;28;20068;-49
2023/07/01 02:03:22;;;;;;;16.25;14.27;;;;;;;14.86;94.18;97204.53;10355319;28;20072;-49
2023/07/01 02:08:21;;;;;;;16.05;13.73;;;;;;;14.78;93.96;97204.75;10332378;28;20029;-49
2023/07/01 02:13:20;;;;;;;;;;;;;;;14.74;93.69;97197.91;10340919;28;20484;-48
2023/07/01 02:18:19;;;;;;;18.02;14.15;;;;;;;14.68;93.61;97200.63;10356138;28;19921;-50
2023/07/01 02:23:18;;;;;;;;;;;;;;;14.63;94.04;97195.53;10339277;28;20412;-49
2023/07/01 02:28:16;;;;;;;20.30;14.05;;;;;;;14.60;94.31;97187.78;10357636;28;19917;-49
2023/07/01 02:33:15;;;;;;;;;;;;;;;14.56;94.21;97196.56;10338973;28;20131;-49
2023/07/01 02:38:14;;;;;;;18.85;13.23;;;;;;;14.48;94.71;97197.69;10356613;28;20395;-47
2023/07/01 02:43:13;;;;;;;;;;;;;;;14.36;94.98;97209.31;10337031;28;20033;-48
2023/07/01 02:48:12;;;;;;;18.23;13.13;;;;;;;14.37;94.83;97206.63;10359047;28;19956;-50
2023/07/01 02:53:11;;;;;;;;;;;;;;;14.34;94.97;97205.88;10336103;28;20131;-51
2023/07/01 02:58:10;;;;;;;22.20;13.50;;;;;;;14.38;94.53;97210.97;10364078;28;19928;-48
2023/07/01 03:03:08;;;;;;;;;;;;;;;14.26;94.61;97208.66;10359386;28;20053;-49
2023/07/01 03:08:07;;;;;;;18.03;13.60;;;;;;;14.28;94.49;97216.44;10327577;28;20403;-50
2023/07/01 03:13:07;;;;;;;15.77;13.32;;;;;;;14.24;95.20;97227.84;10333210;28;20057;-51
2023/07/01 03:18:06;;;;;;;12.73;11.18;;;;;;;14.13;95.98;97222.91;10359338;28;20072;-49
2023/07/01 03:23:04;;;;;;;;;;;;;;;14.16;95.75;97231.50;10332360;28;20035;-49
2023/07/01 03:28:03;;;;;;;15.20;11.80;;;;;;;14.25;95.51;97229.59;10360535;28;20200;-48
2023/07/01 03:33:02;;;;;;;;;;;;;;;14.32;95.20;97226.78;10326003;28;20067;-48
2023/07/01 03:38:01;;;;;;;16.23;12.17;;;;;;;14.40;95.36;97222.25;10330009;28;19975;-50
2023/07/01 03:43:00;;;;;;;;;;;;;;;14.52;95.65;97226.31;10360606;28;20037;-51
2023/07/01 03:47:59;;;;;;;19.75;13.40;;;;;;;14.56;95.23;97224.44;10329169;28;19924;-49
2023/07/01 03:52:58;;;;;;;19.23;13.38;;;;;;;14.65;95.00;97221.59;10361480;28;20080;-47
2023/07/01 03:57:57;;;;;;;;;;;;;;;14.78;94.53;97209.97;10331968;28;20467;-49
2023/07/01 04:03:05;;;;;;;20.33;13.93;;;;;;;14.88;94.65;97212.34;10327066;28;20011;-51
2023/07/01 04:08:04;;;;;;;22.70;13.88;;;;;;;15.02;94.36;97218.06;10360811;28;20064;-49
2023/07/01 04:13:04;;;;;;;18.60;12.65;;;;;;;15.08;94.73;97210.03;10328679;28;20045;-51
2023/07/01 04:18:04;;;;;;;21.63;12.77;;;;;;;15.30;94.12;97218.16;10363947;28;20107;-49
2023/07/01 04:23:03;;;;;;;14.80;11.77;;;;;;;15.44;93.27;97218.59;10330710;28;20068;-51
2023/07/01 04:28:02;;;;;;;13.65;11.73;;;;;;;15.63;92.74;97216.28;10365174;28;20044;-47
2023/07/01 04:33:01;;;;;;;14.75;12.02;;;;;;;15.84;92.78;97206.97;10329350;28;20083;-50
2023/07/01 04:38:00;;;;;;;15.82;12.77;;;;;;;16.06;92.10;97206.28;10365589;28;20427;-50
2023/07/01 04:42:59;;;;;;;19.33;12.40;;;;;;;16.30;91.25;97209.88;10325960;28;20018;-50
2023/07/01 04:47:58;;;;;;;17.40;13.05;;;;;;;16.55;90.33;97209.09;10371996;28;20135;-47
2023/07/01 04:52:57;;;;;;;16.02;13.00;;;;;;;16.70;89.41;97217.28;10333400;28;20049;-50
2023/07/01 04:57:55;;;;;;;17.23;12.40;;;;;;;16.78;90.19;97214.38;10342946;28;20115;-48
2023/07/01 05:02:54;;;;;;;18.73;12.90;;;;;;;16.94;90.08;97206.88;10355770;28;20032;-47
2023/07/01 05:07:53;;;;;;;18.27;11.60;;;;;;;17.06;88.57;97202.97;10332670;28;20398;-51
2023/07/01 05:12:52;;;;;;;16.15;12.35;;;;;;;17.19;88.14;97200.75;10372925;28;20104;-50
2023/07/01 05:17:51;;;;;;;15.20;11.82;;;;;;;17.40;87.67;97193.88;10330812;28;20022;-49
2023/07/01 05:22:50;;;;;;;16.95;12.30;;;;;;;17.69;86.88;97200.66;10368548;28;20032;-47
2023/07/01 05:27:49;;;;;;;14.05;11.00;;;;;;;17.73;85.39;97197.84;10331352;28;20544;-50
2023/07/01 05:32:48;;;;;;;15.65;10.90;;;;;;;18.03;85.46;97201.97;10367921;28;20404;-51
2023/07/01 05:37:47;;;;;;;14.10;10.85;;;;;;;18.07;85.21;97191.28;10332204;28;20036;-50
2023/07/01 05:42:46;;;;;;;13.50;10.95;;;;;;;18.18;84.54;97201.38;10366511;28;20048;-50
2023/07/01 05:47:45;;;;;;;11.73;10.25;;;;;;;18.50;83.98;97200.06;10332412;28;20124;-50
2023/07/01 05:52:44;;;;;;;11.38;9.73;;;;;;;18.71;81.87;97203.56;10365247;28;20480;-49
2023/07/01 05:57:43;;;;;;;15.20;10.07;;;;;;;18.97;80.51;97205.09;10339272;28;20068;-51
2023/07/01 06:02:42;;;;;;;12.52;10.95;;;;;;;19.17;79.22;97193.69;10353941;28;20041;-48
2023/07/01 06:07:41;;;;;;;16.17;13.65;;;;;;;19.38;78.69;97194.50;10351024;28;20073;-48
2023/07/01 06:12:40;;;;;;;12.77;9.70;;;;;;;19.64;78.22;97192.47;10333148;28;20038;-50
2023/07/01 06:17:39;;;;;;;10.38;7.60;;;;;;;19.94;72.23;97187.53;10361893;28;20037;-52
2023/07/01 06:22:39;;;;;;;8.27;6.15;;;;;;;20.21;70.10;97190.66;10334207;28;20152;-49
2023/07/01 06:27:38;;;;;;;7.13;6.22;;;;;;;20.48;66.04;97192.88;10361260;28;20111;-50
2023/07/01 06:32:37;;;;;;;9.48;6.60;;;;;;;20.73;65.95;97186.34;10333875;28;20104;-50
2023/07/01 06:37:36;;;;;;;12.23;8.32;;;;;;;20.85;68.94;97185.75;10359044;28;20132;-49
2023/07/01 06:42:35;;;;;;;10.00;8.48;;;;;;;21.08;69.14;97187.19;10335618;28;20124;-51
2023/07/01 06:47:35;;;;;;;12.80;8.15;;;;;;;21.38;68.27;97181.22;10352670;28;20049;-52
2023/07/01 06:52:34;;;;;;;9.30;7.90;;;;;;;21.65;67.99;97186.81;10326920;28;20164;-49
2023/07/01 06:57:33;;;;;;;10.43;7.43;;;;;;;21.96;65.69;97176.22;10348299;28;20377;-50
2023/07/01 07:02:32;;;;;;;8.00;7.20;;;;;;;22.06;66.45;97151.97;10336642;28;20164;-49
2023/07/01 07:07:31;;;;;;;11.20;8.02;;;;;;;22.59;64.56;97172.66;10355929;28;20112;-50
2023/07/01 07:12:30;;;;;;;9.10;7.40;;;;;;;22.50;61.91;97152.03;10332168;28;20156;-51
2023/07/01 07:17:29;;;;;;;11.57;7.97;;;;;;;22.92;61.32;97155.75;10352228;28;20126;-49
2023/07/01 07:22:28;;;;;;;9.38;6.97;;;;;;;23.09;60.59;97146.81;10334458;28;20049;-49
2023/07/01 07:27:27;;;;;;;8.43;7.07;;;;;;;23.49;61.35;97154.94;10324716;28;20393;-50
2023/07/01 07:32:26;;;;;;;9.02;7.20;;;;;;;23.79;59.37;97145.97;10353725;28;20029;-49
2023/07/01 07:37:24;;;;;;;10.88;7.40;;;;;;;24.12;58.62;97144.75;10336201;28;20612;-51
2023/07/01 07:42:23;;;;;;;9.18;6.97;;;;;;;24.47;57.09;97135.34;10352825;28;20555;-51
2023/07/01 07:47:23;;;;;;;10.02;6.05;;;;;;;24.65;55.25;97133.25;10337047;28;20527;-49
2023/07/01 07:52:22;;;;;;;9.13;6.90;;;;;;;24.94;55.20;97135.72;10352250;28;20134;-51
2023/07/01 07:57:21;;;;;;;7.88;6.45;;;;;;;25.38;54.13;97138.88;10342916;28;20483;-52
2023/07/01 08:02:21;;;;;;;7.32;5.40;;;;;;;25.70;49.95;97123.34;10353091;28;20513;-52
2023/07/01 08:07:20;;;;;;;7.68;6.10;;;;;;;25.92;49.29;97125.28;10339359;28;20076;-52
2023/07/01 08:12:19;;;;;;;8.25;6.32;;;;;;;26.34;50.90;97123.09;10326409;28;20041;-52
2023/07/01 08:17:18;;;;;;;7.68;6.05;;;;;;;26.67;48.18;97105.53;10349661;28;20121;-53
2023/07/01 08:22:18;;;;;;;7.57;5.28;;;;;;;26.90;46.40;97114.44;10344681;28;20124;-51
2023/07/01 08:27:17;;;;;;;9.23;5.78;;;;;;;27.18;46.72;97107.78;10356021;28;20572;-49
2023/07/01 08:32:16;;;;;;;7.53;5.90;;;;;;;27.44;45.24;97097.72;10348613;28;20527;-50
2023/07/01 08:37:14;;;;;;;7.32;5.55;;;;;;;27.57;45.39;97098.47;10355265;28;20116;-50
2023/07/01 08:42:17;;;;;;;7.28;5.75;;;;;;;27.73;44.64;97091.88;10349108;28;20029;-49
2023/07/01 08:47:17;;;;;;;6.28;5.57;;;;;;;27.88;44.48;97076.47;10333367;28;20504;-51
2023/07/01 08:52:21;;;;;;;7.85;5.43;;;;;;;28.07;43.97;97065.13;10349369;28;20180;-48
2023/07/01 08:57:20;;;;;;;6.50;5.70;;;;;;;28.27;43.35;97084.81;10348687;28;20087;-46
2023/07/01 09:02:23;;;;;;;7.93;5.57;;;;;;;28.35;41.00;97090.38;10339812;28;20534;-51
2023/07/01 09:07:22;;;;;;;5.68;5.15;;;;;;;28.40;41.60;97080.16;10347014;28;20064;-51
2023/07/01 09:12:25;;;;;;;8.05;5.88;;;;;;;28.57;41.98;97079.59;10330334;28;20077;-50
2023/07/01 09:17:34;;;;;;;7.72;5.10;;;;;;;28.72;41.76;97079.28;10349330;28;20528;-50
2023/07/01 09:22:36;;;;;;;6.45;5.20;;;;;;;28.90;41.34;97083.03;10350023;28;20101;-49
2023/07/01 09:27:45;;;;;;;8.13;5.70;;;;;;;29.17;41.21;97071.78;10373196;28;20571;-49
2023/07/01 09:32:44;;;;;;;6.68;5.47;;;;;;;29.49;39.02;97068.13;10334445;28;20595;-52
2023/07/01 09:37:43;;;;;;;6.57;5.68;;;;;;;29.71;39.78;97067.88;10372789;28;20487;-50
2023/07/01 09:42:55;;;;;;;6.57;5.38;;;;;;;29.29;37.36;97053.84;10334440;28;20033;-52
2023/07/01 09:47:54;;;;;;;6.53;5.70;;;;;;;29.48;37.26;97059.25;10369697;28;20084;-52
2023/07/01 09:52:55;;;;;;;6.80;5.80;;;;;;;29.54;37.07;97049.84;10332901;28;20061;-48
2023/07/01 09:57:54;;;;;;;6.18;5.18;;;;;;;29.44;36.52;97044.47;10363594;28;20069;-52
2023/07/01 10:02:53;;;;;;;6.55;5.63;;;;;;;29.49;36.92;97023.50;10356129;28;20061;-52
2023/07/01 10:07:52;;;;;;;7.13;5.47;;;;;;;29.82;37.80;97021.44;10371876;28;20072;-49
2023/07/01 10:12:52;;;;;;;6.45;5.70;;;;;;;30.13;37.36;97026.69;10330522;28;20033;-50
2023/07/01 10:17:55;;;;;;;7.10;5.68;;;;;;;30.12;35.98;97016.97;10367930;28;20060;-48
2023/07/01 10:22:59;;;;;;;6.88;5.38;;;;;;;29.91;35.50;96961.78;10326861;28;20117;-47
2023/07/01 10:27:59;;;;;;;5.97;5.32;;;;;;;30.52;34.63;97002.56;10327404;28;20065;-49
2023/07/01 10:32:58;;;;;;;7.35;5.53;;;;;;;30.37;33.72;97003.97;10328452;28;20065;-50
2023/07/01 10:38:20;;;;;;;7.13;5.78;;;;;;;29.79;36.09;96994.13;10367558;28;20051;-49
2023/07/01 10:43:33;;;;;;;7.03;5.57;;;;;;;30.16;36.24;96991.59;10328017;28;20068;-50
2023/07/01 10:48:32;;;;;;;6.70;5.32;;;;;;;30.54;36.38;96980.00;10363170;28;20415;-49
2023/07/01 10:54:04;;;;;;;5.95;5.28;;;;;;;30.73;34.43;96979.09;10326803;28;20350;-47
2023/07/01 10:59:18;;;;;;;7.65;4.93;;;;;;;30.86;35.60;96975.25;10353681;28;20119;-50
2023/07/01 11:04:19;;;;;;;6.45;5.07;;;;;;;31.07;34.85;96967.81;10342162;28;20384;-50
2023/07/01 11:09:35;;;;;;;5.78;5.20;;;;;;;31.24;34.36;96950.13;10334176;28;20080;-50
2023/07/01 11:14:36;;;;;;;8.93;5.53;;;;;;;31.33;33.73;96951.88;10355624;28;20076;-51
2023/07/01 11:19:36;;;;;;;5.55;4.68;;;;;;;31.44;32.83;96958.88;10354311;28;20140;-50
2023/07/01 11:24:36;;;;;;;6.25;5.15;;;;;;;31.45;32.10;96947.16;10335321;28;20116;-52
2023/07/01 11:29:37;;;;;;;5.80;5.20;;;;;;;31.34;31.52;96956.25;10355141;28;20144;-50
2023/07/01 11:34:36;;;;;;;5.53;5.03;;;;;;;30.90;32.18;96948.00;10334576;28;20128;-50
2023/07/01 11:39:44;;;;;;;8.05;5.00;;;;;;;31.13;33.33;96947.66;10357345;28;20043;-50
2023/07/01 11:44:43;;;;;;;11.90;5.30;;;;;;;31.23;31.90;96945.75;10335167;28;20116;-50
2023/07/01 11:49:42;;;;;;;5.45;4.60;;;;;;;31.14;32.97;96926.03;10355263;28;20124;-51
2023/07/01 11:54:48;;;;;;;6.10;4.85;;;;;;;31.53;31.64;96931.16;10332820;28;20760;-52
2023/07/01 11:59:58;;;;;;;5.85;5.25;;;;;;;31.37;30.12;96934.50;10349820;28;20120;-49
2023/07/01 12:04:58;;;;;;;5.78;4.80;;;;;;;31.48;30.71;96914.66;10345041;28;20163;-51
2023/07/01 12:10:17;;;;;;;7.55;5.22;;;;;;;31.88;31.84;96937.50;10354024;28;20073;-51
2023/07/01 12:15:16;;;;;;;6.07;5.10;;;;;;;32.11;29.07;96929.00;10336917;28;20068;-51
2023/07/01 12:20:15;;;;;;;6.63;4.90;;;;;;;32.20;31.01;96930.72;10355788;28;20049;-49
2023/07/01 12:25:14;;;;;;;5.90;5.30;;;;;;;32.07;30.91;96914.22;10339340;28;20040;-48
2023/07/01 12:30:13;;;;;;;5.65;4.63;;;;;;;32.08;32.32;96915.88;10356602;28;20081;-52
2023/07/01 12:35:12;;;;;;;8.07;4.90;;;;;;;32.54;31.32;96917.34;10338731;28;20064;-51
2023/07/01 12:40:11;;;;;;;7.85;5.50;;;;;;;32.93;29.43;96914.19;10327401;28;20532;-51
2023/07/01 12:45:10;;;;;;;7.32;5.20;;;;;;;32.89;27.76;96903.94;10337085;28;20071;-52
2023/07/01 12:50:11;;;;;;;8.05;5.18;;;;;;;33.00;29.66;96895.56;10356680;28;20060;-51
2023/07/01 12:55:10;;;;;;;6.97;5.75;;;;;;;33.18;29.99;96893.59;10350083;28;20053;-47
2023/07/01 13:00:09;;;;;;;7.50;5.50;;;;;;;33.46;31.88;96896.84;10352398;28;20098;-50
2023/07/01 13:05:13;;;;;;;6.45;5.20;;;;;;;33.76;31.24;96885.63;10350469;28;20501;-48
2023/07/01 13:10:12;;;;;;;6.72;5.45;;;;;;;33.75;27.39;96874.03;10347211;28;20069;-48
2023/07/01 13:15:26;;;;;;;7.60;5.82;;;;;;;33.52;28.65;96873.00;10351377;28;20528;-50
2023/07/01 13:20:28;;;;;;;8.27;5.50;;;;;;;33.60;29.80;96854.16;10343068;28;20140;-51
2023/07/01 13:25:28;;;;;;;7.68;5.45;;;;;;;33.60;30.24;96852.34;10341596;28;20120;-50
2023/07/01 13:30:36;;;;;;;7.65;5.70;;;;;;;33.81;30.43;96856.38;10339797;28;20112;-48
2023/07/01 13:35:35;;;;;;;5.95;5.35;;;;;;;34.05;30.13;96848.28;10342507;28;20125;-50
2023/07/01 13:40:39;;;;;;;7.88;5.47;;;;;;;34.14;30.24;96832.94;10348227;28;20496;-51
2023/07/01 13:45:37;;;;;;;7.97;5.90;;;;;;;34.08;27.93;96823.69;10339420;28;20544;-51
2023/07/01 13:50:37;;;;;;;7.70;5.50;;;;;;;34.17;28.11;96816.47;10338247;28;20674;-51
2023/07/01 13:55:36;;;;;;;9.77;5.90;;;;;;;34.11;28.05;96810.94;10332923;28;20105;-50
2023/07/01 14:00:43;;;;;;;10.25;6.10;;;;;;;34.28;29.44;96809.84;10334175;28;20133;-52
2023/07/01 14:05:42;;;;;;;21.77;7.40;;;;;;;34.18;30.48;96766.97;10343352;28;20120;-52
2023/07/01 14:10:42;;;;;;;8.27;5.22;;;;;;;34.44;29.67;96806.25;10339506;28;20104;-49
2023/07/01 14:15:43;;;;;;;6.75;5.63;;;;;;;34.49;29.64;96806.56;10333179;28;20128;-51
2023/07/01 14:20:53;;;;;;;9.50;5.78;;;;;;;34.45;27.94;96805.22;10340835;28;20140;-51
2023/07/01 14:25:53;;;;;;;5.70;5.10;;;;;;;34.31;29.27;96809.53;10350739;28;20183;-51
2023/07/01 14:31:03;;;;;;;6.30;5.32;;;;;;;34.14;30.62;96815.97;10348276;28;20564;-51
2023/07/01 14:36:04;;;;;;;5.50;4.95;;;;;;;34.30;30.41;96811.34;10342890;28;20116;-53
2023/07/01 14:41:03;;;;;;;6.72;5.22;;;;;;;34.32;30.74;96797.72;10334839;28;20154;-49
2023/07/01 14:46:02;;;;;;;8.80;5.05;;;;;;;34.29;30.48;96768.44;10327461;28;20041;-50
2023/07/01 14:51:01;;;;;;;9.15;5.30;;;;;;;34.40;30.19;96776.16;10326252;28;20057;-51
2023/07/01 14:56:00;;;;;;;75.28;13.00;;;;;;;34.13;30.32;96774.72;10356198;28;20111;-51
2023/07/01 15:00:59;;;;;;;11.20;5.82;;;;;;;34.23;31.23;96761.06;10360613;28;20040;-49
2023/07/01 15:05:58;;;;;;;8.80;5.70;;;;;;;34.08;30.51;96763.63;10337661;28;20040;-51
2023/07/01 15:10:57;;;;;;;6.10;5.20;;;;;;;34.04;31.13;96760.41;10325250;28;20037;-51
2023/07/01 15:15:57;;;;;;;6.45;5.35;;;;;;;34.02;31.37;96762.44;10355857;28;20032;-51
2023/07/01 15:20:56;;;;;;;6.68;5.80;;;;;;;33.79;31.58;96756.97;10342377;28;20123;-50
2023/07/01 15:25:55;;;;;;;5.60;5.10;;;;;;;33.48;31.98;96765.72;10355009;28;20045;-51
2023/07/01 15:30:54;;;;;;;8.05;5.88;;;;;;;33.25;32.55;96746.78;10340743;28;20515;-52
2023/07/01 15:35:53;;;;;;;11.77;6.22;;;;;;;33.10;33.12;96743.06;10352117;28;20021;-49
2023/07/01 15:40:52;;;;;;;7.70;5.78;;;;;;;32.91;34.01;96756.81;10341664;28;20121;-52
2023/07/01 15:45:51;;;;;;;6.65;6.00;;;;;;;32.65;34.72;96752.41;10339342;28;20145;-50
2023/07/01 15:50:51;;;;;;;8.02;6.03;;;;;;;32.31;35.92;96763.16;10357939;28;20850;-52
2023/07/01 15:55:50;;;;;;;6.65;5.95;;;;;;;31.91;36.48;96776.19;10341183;28;20068;-52
2023/07/01 16:00:50;;;;;;;8.95;6.93;;;;;;;31.50;36.91;96773.28;10358165;28;20117;-51
2023/07/01 16:05:49;;;;;;;17.10;11.88;;;;;;;31.12;37.47;96783.34;10343249;28;20072;-55
2023/07/01 16:10:49;;;;;;;10.60;9.27;;;;;;;30.77;37.54;96778.75;10350252;28;20037;-50
2023/07/01 16:15:51;;;;;;;13.27;8.15;;;;;;;30.23;40.19;96759.88;10350187;28;20076;-51
2023/07/01 16:21:03;;;;;;;11.98;8.00;;;;;;;29.68;41.68;96749.97;10340413;28;20072;-52
2023/07/01 16:26:07;;;;;;;12.02;8.02;;;;;;;29.22;42.46;96740.03;10347341;28;20120;-53
2023/07/01 16:31:06;;;;;;;14.18;8.52;;;;;;;28.79;43.44;96744.00;10339659;28;20128;-53
2023/07/01 16:36:18;;;;;;;9.68;7.38;;;;;;;28.45;44.25;96768.34;10347953;28;20068;-52
2023/07/01 16:41:22;;;;;;;8.63;6.95;;;;;;;28.18;44.94;96803.69;10324785;28;20120;-49
2023/07/01 16:46:32;;;;;;;18.48;7.00;;;;;;;26.50;45.79;96755.59;10331652;28;20133;-49
2023/07/01 16:51:34;;;;;;;11.48;5.95;;;;;;;25.25;47.63;96868.06;10332732;28;20160;-50
2023/07/01 16:56:37;;;;;;;15.32;6.50;;;;;;;24.92;50.73;96935.06;10338667;28;20163;-48
2023/07/01 17:01:43;;;;;;;8.73;5.47;;;;;;;24.32;57.18;96953.41;10331154;28;20472;-50
2023/07/01 17:06:44;;;;;;;13.82;6.55;;;;;;;23.54;63.21;96983.34;10334177;28;20081;-49
2023/07/01 17:11:47;;;;;;;14.55;6.63;;;;;;;22.98;67.75;97004.56;10372614;28;20080;-51
2023/07/01 17:16:45;;;;;;;17.52;7.50;;;;;;;22.59;71.91;97013.13;10372854;28;20087;-49
2023/07/01 17:21:44;;;;;;;11.90;7.20;;;;;;;22.27;74.96;97009.81;10342385;28;20124;-49
2023/07/01 17:26:43;;;;;;;12.98;7.35;;;;;;;21.96;76.90;97012.44;10330928;28;20128;-51
2023/07/01 17:31:42;;;;;;;12.50;8.23;;;;;;;21.64;78.81;96985.28;10330972;28;20124;-48
2023/07/01 17:36:41;;;;;;;15.18;8.88;;;;;;;21.39;80.36;96975.28;10330599;28;20108;-52
2023/07/01 17:41:41;;;;;;;12.93;8.70;;;;;;;21.34;82.02;96985.25;10329810;28;20508;-50
2023/07/01 17:46:40;;;;;;;13.23;8.50;;;;;;;21.07;83.22;96967.34;10330756;28;20080;-50
2023/07/01 17:51:39;;;;;;;11.48;7.78;;;;;;;20.97;83.82;96971.44;10328176;28;20072;-51
2023/07/01 17:56:38;;;;;;;14.63;8.20;;;;;;;20.65;84.83;96971.41;10334150;28;20036;-52
2023/07/01 18:01:37;;;;;;;12.52;8.73;;;;;;;20.77;84.76;96961.97;10327530;28;20137;-51
2023/07/01 18:06:36;;;;;;;12.00;8.40;;;;;;;20.79;85.60;96957.47;10361639;28;20111;-48
2023/07/01 18:11:35;;;;;;;12.82;7.63;;;;;;;20.70;85.63;96948.31;10335519;28;20072;-49
2023/07/01 18:16:35;;;;;;;12.50;7.93;;;;;;;20.20;86.69;96862.25;10358918;28;20380;-50
2023/07/01 18:21:34;;;;;;;12.07;7.78;;;;;;;20.69;87.37;96954.50;10334230;28;20127;-48
2023/07/01 18:26:33;;;;;;;12.30;7.85;;;;;;;20.62;87.03;96957.56;10359374;28;20040;-50
2023/07/01 18:31:32;;;;;;;12.93;8.35;;;;;;;20.47;88.28;96954.81;10334971;28;20565;-51
2023/07/01 18:36:32;;;;;;;14.10;7.95;;;;;;;20.42;87.74;96956.84;10326113;28;20512;-49
2023/07/01 18:41:35;;;;;;;13.98;8.88;;;;;;;20.43;88.79;96963.81;10358479;28;20072;-50
2023/07/01 18:46:34;;;;;;;11.23;6.60;;;;;;;20.22;88.11;96997.38;10336068;28;20112;-49
2023/07/01 18:51:33;;;;;;;13.95;7.63;;;;;;;19.91;91.37;97036.72;10357907;28;20047;-50
2023/07/01 18:56:33;;;;;;;14.32;7.60;;;;;;;19.97;91.01;97053.09;10358383;28;20025;-50
2023/07/01 19:01:34;;;;;;;12.73;8.20;;;;;;;20.10;90.84;97028.78;10336642;28;20060;-48
2023/07/01 19:06:33;;;;;;;12.32;7.85;;;;;;;20.12;90.32;97021.63;10355574;28;20132;-51
2023/07/01 19:11:32;;;;;;;13.95;7.72;;;;;;;20.05;90.89;97031.66;10335173;28;20411;-52
2023/07/01 19:16:31;;;;;;;12.73;7.78;;;;;;;19.97;92.85;97015.38;10355020;28;20152;-50
2023/07/01 19:21:30;;;;;;;11.80;7.53;;;;;;;19.85;93.24;97017.69;10338244;28;20140;-50
2023/07/01 19:26:29;;;;;;;11.20;7.20;;;;;;;19.71;92.40;97028.06;10325278;28;20116;-48
2023/07/01 19:31:28;;;;;;;10.38;6.95;;;;;;;19.83;91.59;97024.81;10351712;28;20118;-48
2023/07/01 19:36:27;;;;;;;12.95;8.10;;;;;;;19.92;91.47;97009.50;10338268;28;20037;-49
2023/07/01 19:41:26;;;;;;;11.32;6.85;;;;;;;19.89;90.57;97014.91;10352439;28;20368;-52
2023/07/01 19:46:25;;;;;;;10.88;6.97;;;;;;;19.77;90.34;96988.28;10337226;28;20419;-46
2023/07/01 19:51:24;;;;;;;12.25;6.93;;;;;;;19.79;90.08;97004.84;10349037;28;20037;-46
2023/07/01 19:56:23;;;;;;;10.35;7.05;;;;;;;19.77;89.78;97017.22;10337715;28;20061;-51
2023/07/01 20:01:22;;;;;;;12.57;8.05;;;;;;;19.65;89.22;97007.31;10349866;28;20041;-51
2023/07/01 20:06:21;;;;;;;12.35;8.00;;;;;;;19.63;89.19;97004.75;10338415;28;20051;-48
2023/07/01 20:11:21;;;;;;;15.68;8.15;;;;;;;19.60;89.68;97009.28;10348117;28;20116;-50
2023/07/01 20:16:20;;;;;;;13.88;8.13;;;;;;;19.52;90.35;97011.44;10343466;28;20060;-50
2023/07/01 20:21:19;;;;;;;12.32;7.85;;;;;;;19.23;93.98;97030.34;10360165;28;20041;-51
2023/07/01 20:26:18;;;;;;;14.13;8.93;;;;;;;19.02;96.10;97026.09;10350836;28;20121;-50
2023/07/01 20:31:17;;;;;;;18.42;10.23;;;;;;;19.06;95.89;97019.72;10356642;28;20120;-51
2023/07/01 20:36:16;;;;;;;16.67;9.15;;;;;;;18.88;95.93;97026.72;10351604;28;20040;-49
2023/07/01 20:41:15;;;;;;;13.25;8.27;;;;;;;18.75;95.87;97025.56;10333889;28;20068;-51
2023/07/01 20:46:13;;;;;;;13.23;7.32;;;;;;;18.78;95.30;97021.03;10356073;28;20047;-47
2023/07/01 20:51:13;;;;;;;12.13;7.20;;;;;;;18.74;95.00;97008.09;10351976;28;20151;-48
2023/07/01 20:56:12;;;;;;;12.20;7.80;;;;;;;18.82;94.25;97008.59;10359973;28;20072;-49
2023/07/01 21:01:11;;;;;;;12.70;8.30;;;;;;;18.86;93.61;97028.56;10353059;28;20040;-53
2023/07/01 21:06:10;;;;;;;12.57;8.43;;;;;;;18.68;95.80;97024.09;10353945;28;20216;-47
2023/07/01 21:11:09;;;;;;;18.80;8.15;;;;;;;18.59;95.50;97028.84;10353615;28;20068;-50
2023/07/01 21:16:08;;;;;;;21.35;8.82;;;;;;;18.56;95.43;97010.59;10329847;28;20029;-48
2023/07/01 21:21:09;;;;;;;14.93;8.30;;;;;;;18.57;94.90;97022.81;10347405;28;20115;-51
2023/07/01 21:26:16;;;;;;;17.63;7.93;;;;;;;18.52;93.92;97016.06;10347649;28;20128;-51
2023/07/01 21:31:15;;;;;;;15.48;7.35;;;;;;;18.43;93.77;97009.44;10346809;28;20080;-49
2023/07/01 21:36:15;;;;;;;14.38;7.15;;;;;;;18.16;94.29;96980.00;10345861;28;20111;-48
2023/07/01 21:41:14;;;;;;;12.43;7.90;;;;;;;18.36;93.85;96994.84;10348746;28;20064;-50
2023/07/01 21:46:14;;;;;;;15.52;7.70;;;;;;;18.22;94.14;96992.84;10344897;28;20043;-50
2023/07/01 21:51:13;;;;;;;17.05;8.00;;;;;;;18.13;94.81;96986.25;10347053;28;20572;-50
2023/07/01 21:56:16;;;;;;;17.33;7.88;;;;;;;18.09;95.70;96987.28;10332547;28;20500;-47
2023/07/01 22:01:27;;;;;;;16.27;9.23;;;;;;;18.11;96.67;96977.56;10347101;28;20079;-49
2023/07/01 22:06:29;;;;;;;20.38;10.07;;;;;;;18.12;97.16;96973.16;10325134;28;20140;-48
2023/07/01 22:11:28;;;;;;;16.95;9.70;;;;;;;18.14;97.34;96969.56;10365540;28;20072;-49
2023/07/01 22:16:27;;;;;;;15.48;10.27;;;;;;;18.11;97.20;96961.81;10362383;28;20120;-51
2023/07/01 22:21:29;;;;;;;19.10;9.30;;;;;;;18.06;97.25;96942.78;10320172;28;1189965;-48
2023/07/01 22:26:28;;;;;;;18.23;10.32;;;;;;;18.06;97.04;96934.03;10362332;28;20136;-48
2023/07/01 22:31:27;;;;;;;17.58;10.10;;;;;;;18.05;96.82;96930.56;10366758;28;20029;-49
2023/07/01 22:36:26;;;;;;;23.40;10.10;;;;;;;18.05;97.06;96929.72;10367469;28;20100;-48
2023/07/01 22:41:25;;;;;;;18.15;9.75;;;;;;;17.98;97.34;96931.75;10367209;28;20800;-49
2023/07/01 22:46:24;;;;;;;19.95;9.50;;;;;;;17.99;97.04;96941.34;10367132;28;20734;-50
2023/07/01 22:51:23;;;;;;;15.35;8.48;;;;;;;17.96;97.26;96936.22;10366740;28;20029;-48
2023/07/01 22:56:22;;;;;;;21.17;9.73;;;;;;;17.97;97.44;96936.16;10363360;28;20108;-50
2023/07/01 23:01:21;;;;;;;16.17;9.05;;;;;;;17.59;97.83;96882.69;10367038;28;20516;-49
2023/07/01 23:06:20;;;;;;;20.55;9.98;;;;;;;17.81;97.98;96922.00;10365710;28;20098;-48
2023/07/01 23:11:19;;;;;;;21.73;11.00;;;;;;;17.88;97.59;96927.84;10366031;28;20033;-50